Time;durP1;ratioP1;P1;durP2;ratioP2;P2;SDS_P1;SDS_P2;PMS_P1;PMS_P2;Temp;Humidity;BMP_temperature;BMP_pressure;BME280_temperature;BME280_humidity;BME280_pressure;Samples;Min_cycle;Max_cycle;Signal;HPM_P1;HPM_P2
2023/03/17 00:00:48;;;;;;;;;;;;;;;-2.23;56.65;97794.41;6319667;28;20044;-67
2023/03/17 00:03:54;;;;;;;12.63;6.05;;;;;;;-2.02;55.70;97794.38;6319190;28;19973;-67
2023/03/17 00:06:58;;;;;;;9.57;5.35;;;;;;;-1.94;55.54;97800.41;6319269;28;20051;-67
2023/03/17 00:10:03;;;;;;;15.45;7.38;;;;;;;-1.97;56.00;97802.13;6319139;28;20509;-67
2023/03/17 00:13:11;;;;;;;15.45;6.40;;;;;;;-2.05;56.24;97799.53;6318969;28;20093;-66
2023/03/17 00:16:20;;;;;;;10.25;6.25;;;;;;;-2.15;56.46;97800.41;6317891;28;20416;-67
2023/03/17 00:19:35;;;;;;;10.68;5.85;;;;;;;-2.20;57.58;97799.56;6317787;28;20491;-67
2023/03/17 00:22:39;;;;;;;11.82;6.05;;;;;;;-2.28;57.82;97797.81;6318922;28;20048;-67
2023/03/17 00:25:45;;;;;;;10.88;5.50;;;;;;;-2.30;57.70;97789.22;6319244;28;20054;-67
2023/03/17 00:28:51;;;;;;;14.48;5.60;;;;;;;-2.26;57.33;97784.94;6319122;28;20505;-69
2023/03/17 00:31:57;;;;;;;10.25;5.32;;;;;;;-2.31;57.10;97792.66;6317580;28;20051;-67
2023/03/17 00:35:04;;;;;;;9.75;5.28;;;;;;;-2.40;56.84;97786.66;6319043;28;20040;-67
2023/03/17 00:38:15;;;;;;;10.27;5.78;;;;;;;-2.50;57.02;97789.19;6319130;28;20050;-67
2023/03/17 00:41:21;;;;;;;10.02;5.07;;;;;;;-2.63;56.72;97784.91;6317898;28;20116;-67
2023/03/17 00:44:26;;;;;;;8.43;4.28;;;;;;;-2.68;57.10;97790.91;6318725;28;20073;-66
2023/03/17 00:47:31;;;;;;;6.15;4.22;;;;;;;-2.76;57.15;97786.56;6321209;28;20047;-66
2023/03/17 00:50:37;;;;;;;5.53;2.80;;;;;;;-2.58;56.19;97783.16;6323257;28;20043;-67
2023/03/17 00:53:42;;;;;;;4.68;3.13;;;;;;;-2.49;55.64;97775.47;6323302;28;20446;-67
2023/03/17 00:56:49;;;;;;;8.85;4.13;;;;;;;-2.49;55.79;97777.19;6323204;28;20048;-67
2023/03/17 00:59:54;;;;;;;5.82;3.97;;;;;;;-2.56;55.67;97772.88;6323104;28;20047;-67
2023/03/17 01:02:58;;;;;;;6.80;3.38;;;;;;;-2.68;56.03;97770.28;6322916;28;20555;-67
2023/03/17 01:06:05;;;;;;;7.07;3.83;;;;;;;-2.74;56.35;97769.41;6322879;28;20077;-67
2023/03/17 01:09:15;;;;;;;6.53;4.15;;;;;;;-2.78;56.80;97764.25;6322888;28;20046;-67
2023/03/17 01:12:20;;;;;;;8.18;4.47;;;;;;;-2.85;56.54;97776.25;6321777;28;20040;-67
2023/03/17 01:15:25;;;;;;;7.25;4.38;;;;;;;-2.90;56.92;97770.22;6322711;28;20036;-66
2023/03/17 01:18:30;;;;;;;11.25;4.40;;;;;;;-2.91;57.04;97773.69;6322741;28;20043;-67
2023/03/17 01:21:34;;;;;;;10.95;5.25;;;;;;;-2.95;57.02;97777.94;6322607;28;20047;-67
2023/03/17 01:24:38;;;;;;;;;;;;;;;-2.97;57.15;97783.97;6322805;28;20040;-67
2023/03/17 01:27:43;;;;;;;12.70;4.85;;;;;;;-3.04;57.06;97787.34;6322645;28;20065;-67
2023/03/17 01:30:48;;;;;;;27.02;13.15;;;;;;;-3.04;57.12;97787.34;6322308;28;20516;-68
2023/03/17 01:33:53;;;;;;;31.65;14.77;;;;;;;-3.09;57.52;97779.59;6322380;28;20035;-68
2023/03/17 01:36:58;;;;;;;26.75;10.80;;;;;;;-3.13;57.90;97788.19;6322645;28;20413;-66
2023/03/17 01:40:03;;;;;;;27.13;11.45;;;;;;;-3.21;57.94;97777.84;6322259;28;20040;-67
2023/03/17 01:43:10;;;;;;;26.60;11.20;;;;;;;-3.23;58.23;97782.16;6321841;28;20101;-66
2023/03/17 01:46:29;;;;;;;26.85;11.98;;;;;;;-3.26;58.31;97776.97;6321090;28;20090;-67
2023/03/17 01:49:39;;;;;;;21.95;10.75;;;;;;;-3.29;58.45;97779.53;6322261;28;20052;-67
2023/03/17 01:52:46;;;;;;;15.55;7.97;;;;;;;-3.33;58.35;97782.94;6320448;28;20052;-66
2023/03/17 01:55:52;;;;;;;15.85;7.07;;;;;;;-3.37;58.49;97786.34;6321458;28;20555;-66
2023/03/17 01:59:00;;;;;;;14.75;7.15;;;;;;;-3.39;58.64;97790.66;6321460;28;20117;-68
2023/03/17 02:02:09;;;;;;;18.93;6.87;;;;;;;-3.39;58.82;97790.66;6320035;28;20047;-66
2023/03/17 02:05:16;;;;;;;23.52;7.72;;;;;;;-3.46;58.69;97778.59;6321759;28;20046;-67
2023/03/17 02:08:20;;;;;;;19.70;7.45;;;;;;;-3.46;58.95;97783.75;6321605;28;20054;-67
2023/03/17 02:11:25;;;;;;;13.05;6.40;;;;;;;-3.46;58.88;97778.59;6321445;28;20081;-67
2023/03/17 02:14:30;;;;;;;21.73;6.72;;;;;;;-3.49;58.56;97773.44;6321191;28;20043;-67
2023/03/17 02:17:34;;;;;;;14.88;6.70;;;;;;;-3.51;58.75;97788.00;6321219;28;20047;-67
2023/03/17 02:20:40;;;;;;;14.00;6.47;;;;;;;-3.53;58.80;97782.00;6321265;28;20040;-67
2023/03/17 02:23:47;;;;;;;14.18;5.75;;;;;;;-3.52;58.70;97778.56;6321145;28;20040;-66
2023/03/17 02:26:53;;;;;;;17.65;8.43;;;;;;;-3.52;58.77;97789.72;6302646;28;20409;-67
2023/03/17 02:29:58;;;;;;;37.83;16.17;;;;;;;-3.47;58.84;97802.63;6320852;28;20040;-66
2023/03/17 02:33:03;;;;;;;46.80;18.90;;;;;;;-3.44;58.59;97807.78;6320750;28;20044;-67
2023/03/17 02:36:08;;;;;;;67.20;26.92;;;;;;;-3.42;58.17;97796.63;6320759;28;20134;-67
2023/03/17 02:39:13;;;;;;;68.45;27.52;;;;;;;-3.40;58.48;97789.78;6320527;28;20047;-66
2023/03/17 02:42:17;;;;;;;37.92;14.93;;;;;;;-3.37;58.38;97799.22;6320329;28;20040;-67
2023/03/17 02:45:22;;;;;;;31.77;12.90;;;;;;;-3.37;58.08;97794.06;6320555;28;20036;-67
2023/03/17 02:48:24;;;;;;;;;;;;;;;-3.36;57.87;97795.81;6320265;28;20126;-67
2023/03/17 02:51:29;;;;;;;24.73;9.05;;;;;;;-3.34;57.44;97793.22;6319292;28;20412;-66
2023/03/17 02:54:33;;;;;;;27.95;9.85;;;;;;;-3.29;57.46;97792.41;6320133;28;20055;-67
2023/03/17 02:57:38;;;;;;;25.27;9.98;;;;;;;-3.25;57.19;97786.41;6320159;28;20047;-67
2023/03/17 03:00:42;;;;;;;24.45;12.23;;;;;;;-3.16;57.16;97789.03;6320415;28;20444;-67
2023/03/17 03:03:47;;;;;;;29.85;13.13;;;;;;;-3.04;57.03;97788.22;6320092;28;20044;-68
2023/03/17 03:06:53;;;;;;;24.73;12.82;;;;;;;-2.82;56.83;97796.88;6320077;28;20043;-68
2023/03/17 03:09:58;;;;;;;24.58;12.63;;;;;;;-2.75;56.83;97788.28;6320526;28;20501;-68
2023/03/17 03:13:03;;;;;;;24.95;12.02;;;;;;;-2.69;56.90;97790.00;6320289;28;20080;-67
2023/03/17 03:16:06;;;;;;;22.77;9.73;;;;;;;-2.62;56.60;97796.06;6319791;28;20493;-67
2023/03/17 03:19:10;;;;;;;;;;;;;;;-2.56;56.79;97798.66;6320418;28;20050;-67
2023/03/17 03:22:16;;;;;;;19.52;9.45;;;;;;;-2.47;56.27;97798.66;6318065;28;20023;-66
2023/03/17 03:25:20;;;;;;;25.33;10.07;;;;;;;-2.35;56.61;97795.22;6319519;28;20054;-68
2023/03/17 03:28:24;;;;;;;24.30;10.45;;;;;;;-2.21;56.20;97795.25;6318442;28;20101;-67
2023/03/17 03:31:27;;;;;;;;;;;;;;;-2.06;56.24;97792.69;6320091;28;20044;-67
2023/03/17 03:34:32;;;;;;;26.50;10.98;;;;;;;-1.89;56.13;97796.09;6318033;28;19957;-67
2023/03/17 03:37:36;;;;;;;26.90;12.20;;;;;;;-1.71;55.59;97790.06;6319643;28;20513;-68
2023/03/17 03:40:41;;;;;;;26.48;11.20;;;;;;;-1.55;55.26;97796.06;6318136;28;20077;-68
2023/03/17 03:43:46;;;;;;;24.70;11.65;;;;;;;-1.41;55.19;97803.78;6319461;28;20610;-68
2023/03/17 03:46:51;;;;;;;26.13;11.93;;;;;;;-1.30;54.58;97801.13;6319221;28;20493;-68
2023/03/17 03:49:55;;;;;;;34.15;11.68;;;;;;;-1.20;54.41;97802.84;6318967;28;20047;-67
2023/03/17 03:53:01;;;;;;;84.47;39.65;;;;;;;-1.07;54.83;97799.34;6318880;28;20447;-67
2023/03/17 03:56:05;;;;;;;34.03;14.38;;;;;;;-0.99;54.58;97802.78;6317607;28;20052;-67
2023/03/17 03:59:10;;;;;;;28.13;11.82;;;;;;;-0.86;55.06;97803.56;6317588;28;20109;-67
2023/03/17 04:02:15;;;;;;;36.30;11.77;;;;;;;-0.74;54.76;97808.66;6319091;28;20047;-67
2023/03/17 04:05:21;;;;;;;27.13;10.82;;;;;;;-0.62;53.80;97807.75;6318859;28;20074;-67
2023/03/17 04:08:27;;;;;;;25.15;9.60;;;;;;;-0.50;53.63;97799.91;6319405;28;20040;-67
2023/03/17 04:11:31;;;;;;;20.13;9.68;;;;;;;-0.19;52.20;97801.44;6319192;28;20094;-67
2023/03/17 04:14:35;;;;;;;16.00;8.30;;;;;;;-0.11;51.79;97810.03;6319080;28;20505;-67
2023/03/17 04:17:40;;;;;;;15.07;8.07;;;;;;;-0.02;51.13;97800.44;6318875;28;20044;-68
2023/03/17 04:20:44;;;;;;;16.48;7.13;;;;;;;0.02;50.71;97806.44;6320732;28;20036;-67
2023/03/17 04:23:50;;;;;;;32.22;15.75;;;;;;;0.13;50.12;97802.03;6323729;28;20043;-69
2023/03/17 04:26:55;;;;;;;14.88;7.30;;;;;;;0.29;50.12;97801.91;6323884;28;20044;-68
2023/03/17 04:30:01;;;;;;;11.27;4.88;;;;;;;0.50;49.81;97806.03;6323950;28;20121;-67
2023/03/17 04:33:04;;;;;;;10.73;5.03;;;;;;;0.67;49.42;97801.53;6322402;28;20055;-67
2023/03/17 04:36:18;;;;;;;12.50;6.32;;;;;;;0.88;49.55;97806.47;6323877;28;20505;-67
2023/03/17 04:39:22;;;;;;;11.95;6.22;;;;;;;1.03;49.45;97804.59;6323552;28;20047;-68
2023/03/17 04:42:26;;;;;;;26.80;12.90;;;;;;;1.20;49.36;97806.97;6323686;28;20419;-67
2023/03/17 04:45:31;;;;;;;8.60;4.88;;;;;;;1.35;48.04;97792.06;6323592;28;20452;-68
2023/03/17 04:48:35;;;;;;;10.02;5.20;;;;;;;1.46;47.61;97794.50;6323530;28;20131;-66
2023/03/17 04:51:40;;;;;;;10.02;5.13;;;;;;;1.61;47.42;97802.94;6323247;28;20073;-67
2023/03/17 04:54:44;;;;;;;7.38;4.72;;;;;;;1.76;47.27;97793.22;6321623;28;20135;-67
2023/03/17 04:57:49;;;;;;;10.48;5.07;;;;;;;1.86;47.09;97795.66;6323261;28;20048;-67
2023/03/17 05:00:54;;;;;;;7.15;4.30;;;;;;;1.91;46.82;97788.66;6321901;28;20044;-67
2023/03/17 05:04:00;;;;;;;6.45;4.80;;;;;;;1.93;46.94;97776.53;6323168;28;20498;-68
2023/03/17 05:07:06;;;;;;;11.93;6.20;;;;;;;2.00;46.64;97784.16;6322894;28;20051;-68
2023/03/17 05:10:11;;;;;;;14.25;8.35;;;;;;;2.08;46.40;97784.06;6322829;28;20039;-66
2023/03/17 05:13:17;;;;;;;15.48;9.48;;;;;;;2.17;46.51;97778.69;6322913;28;20573;-67
2023/03/17 05:16:22;;;;;;;16.63;8.90;;;;;;;2.26;46.22;97772.50;6322560;28;20044;-67
2023/03/17 05:19:26;;;;;;;16.73;7.78;;;;;;;2.31;46.03;97780.22;6321591;28;20036;-68
2023/03/17 05:22:31;;;;;;;12.57;7.60;;;;;;;2.42;46.09;97786.06;6322605;28;20129;-67
2023/03/17 05:25:35;;;;;;;15.55;8.88;;;;;;;2.45;46.27;97780.81;6321887;28;20043;-67
2023/03/17 05:28:41;;;;;;;11.90;7.10;;;;;;;2.57;45.69;97785.78;6322841;28;20136;-67
2023/03/17 05:31:46;;;;;;;8.90;6.13;;;;;;;2.82;44.61;97777.53;6320517;28;20040;-68
2023/03/17 05:34:50;;;;;;;10.00;5.35;;;;;;;3.07;43.43;97767.50;6322449;28;20429;-67
2023/03/17 05:37:55;;;;;;;7.78;5.55;;;;;;;3.04;43.50;97772.78;6322337;28;20039;-68
2023/03/17 05:40:59;;;;;;;9.70;5.47;;;;;;;3.15;43.29;97768.22;6322199;28;20046;-68
2023/03/17 05:44:04;;;;;;;6.50;3.97;;;;;;;3.30;43.11;97769.63;6322203;28;20452;-67
2023/03/17 05:47:09;;;;;;;8.27;5.43;;;;;;;4.71;40.68;97777.47;6322083;28;20036;-67
2023/03/17 05:50:13;;;;;;;7.95;4.85;;;;;;;10.44;33.10;97784.47;6321918;28;20036;-67
2023/03/17 05:53:18;;;;;;;6.70;3.00;;;;;;;16.05;26.81;97779.41;6321997;28;20050;-68
2023/03/17 05:56:25;;;;;;;3.47;2.70;;;;;;;20.69;22.49;97776.13;6321558;28;20052;-68
2023/03/17 05:59:29;;;;;;;2.10;1.50;;;;;;;24.28;18.78;97784.41;6321621;28;20576;-69
2023/03/17 06:02:34;;;;;;;1.65;1.05;;;;;;;27.31;16.22;97780.88;6321674;28;20074;-68
2023/03/17 06:05:38;;;;;;;2.03;1.15;;;;;;;29.71;14.10;97779.94;6320039;28;20424;-66
2023/03/17 06:08:44;;;;;;;1.65;1.15;;;;;;;31.68;12.63;97786.38;6321956;28;20483;-68
2023/03/17 06:11:48;;;;;;;3.47;1.52;;;;;;;33.13;11.03;97784.09;6321496;28;20497;-68
2023/03/17 06:14:53;;;;;;;3.97;1.90;;;;;;;34.28;10.49;97785.53;6321377;28;20047;-67
2023/03/17 06:17:58;;;;;;;4.30;1.58;;;;;;;35.30;10.03;97783.72;6321342;28;20081;-68
2023/03/17 06:21:02;;;;;;;2.47;1.15;;;;;;;36.39;9.14;97793.31;6321072;28;20420;-68
2023/03/17 06:24:06;;;;;;;2.78;1.17;;;;;;;37.38;8.77;97782.00;6320969;28;20127;-69
2023/03/17 06:27:09;;;;;;;1.55;1.20;;;;;;;38.31;7.68;97787.81;6321002;28;20189;-69
2023/03/17 06:30:13;;;;;;;1.38;1.00;;;;;;;39.01;7.53;97788.06;6320779;28;20081;-68
2023/03/17 06:33:18;;;;;;;5.72;1.80;;;;;;;39.41;7.08;97784.06;6320843;28;20067;-68
2023/03/17 06:36:23;;;;;;;3.28;1.65;;;;;;;40.01;6.85;97785.56;6320810;28;20439;-69
2023/03/17 06:39:28;;;;;;;2.58;1.80;;;;;;;40.72;6.37;97787.00;6320706;28;20046;-68
2023/03/17 06:42:32;;;;;;;3.13;1.80;;;;;;;40.94;6.39;97784.84;6320686;28;20090;-67
2023/03/17 06:45:36;;;;;;;6.13;2.28;;;;;;;41.01;5.81;97785.41;6318179;28;20534;-67
2023/03/17 06:48:42;;;;;;;3.25;2.15;;;;;;;41.15;5.94;97776.63;6320465;28;20036;-69
2023/03/17 06:51:47;;;;;;;3.08;1.92;;;;;;;41.29;5.79;97773.03;6320397;28;20428;-69
2023/03/17 06:54:52;;;;;;;2.38;1.20;;;;;;;41.13;5.37;97781.56;6320044;28;20052;-69
2023/03/17 06:57:57;;;;;;;2.10;1.27;;;;;;;41.14;5.25;97773.03;6320074;28;20039;-68
2023/03/17 07:01:03;;;;;;;1.30;0.70;;;;;;;40.52;5.27;97763.75;6318724;28;20505;-68
2023/03/17 07:04:08;;;;;;;2.00;0.77;;;;;;;40.29;5.65;97761.47;6320269;28;20032;-68
2023/03/17 07:07:12;;;;;;;1.80;1.10;;;;;;;40.64;5.43;97759.97;6320110;28;20039;-69
2023/03/17 07:10:16;;;;;;;0.68;0.47;;;;;;;40.66;5.40;97747.56;6320131;28;20054;-67
2023/03/17 07:13:21;;;;;;;0.63;0.40;;;;;;;40.89;5.08;97751.72;6319654;28;20040;-67
2023/03/17 07:16:26;;;;;;;0.50;0.40;;;;;;;40.95;5.16;97747.03;6320118;28;20051;-68
2023/03/17 07:19:31;;;;;;;0.73;0.50;;;;;;;40.39;5.21;97744.94;6319644;28;20048;-68
2023/03/17 07:22:36;;;;;;;1.17;0.50;;;;;;;40.07;5.68;97745.91;6319640;28;20496;-68
2023/03/17 07:25:42;;;;;;;0.65;0.50;;;;;;;40.13;5.70;97736.56;6319634;28;20043;-68
2023/03/17 07:28:45;;;;;;;1.52;0.43;;;;;;;40.55;5.50;97740.31;6319800;28;20044;-69
2023/03/17 07:31:50;;;;;;;0.57;0.40;;;;;;;40.59;5.28;97742.25;6319383;28;20565;-69
2023/03/17 07:34:55;;;;;;;1.13;0.50;;;;;;;40.29;5.34;97736.66;6319552;28;20047;-67
2023/03/17 07:38:01;;;;;;;1.80;1.27;;;;;;;39.66;5.76;97739.31;6319636;28;20044;-69
2023/03/17 07:41:08;;;;;;;0.82;0.52;;;;;;;40.14;5.60;97737.38;6319356;28;20092;-68
2023/03/17 07:44:15;;;;;;;1.08;0.98;;;;;;;39.89;5.40;97738.09;6319221;28;20131;-68
2023/03/17 07:47:19;;;;;;;1.50;1.05;;;;;;;40.27;5.68;97741.63;6319143;28;20573;-67
2023/03/17 07:50:24;;;;;;;2.25;0.63;;;;;;;40.03;5.31;97736.53;6319306;28;20054;-69
2023/03/17 07:53:29;;;;;;;1.10;0.70;;;;;;;39.79;5.49;97732.53;6319299;28;20446;-68
2023/03/17 07:56:34;;;;;;;2.75;0.90;;;;;;;40.20;5.48;97733.59;6316853;28;20054;-68
2023/03/17 07:59:39;;;;;;;1.35;0.60;;;;;;;41.03;4.85;97732.69;6319161;28;20081;-69
2023/03/17 08:02:43;;;;;;;1.63;0.52;;;;;;;41.34;5.07;97730.78;6318902;28;20425;-68
2023/03/17 08:05:54;;;;;;;3.28;0.70;;;;;;;41.59;5.09;97737.38;6318993;28;20130;-68
2023/03/17 08:08:59;;;;;;;3.35;1.25;;;;;;;42.00;5.02;97726.25;6318957;28;20058;-69
2023/03/17 08:12:03;;;;;;;3.08;1.45;;;;;;;41.85;4.74;97724.34;6317586;28;20043;-68
2023/03/17 08:15:08;;;;;;;1.60;1.15;;;;;;;41.87;5.07;97725.72;6318912;28;20044;-68
2023/03/17 08:18:13;;;;;;;1.75;1.55;;;;;;;42.32;4.80;97718.38;6318940;28;20047;-69
2023/03/17 08:21:18;;;;;;;2.15;1.25;;;;;;;41.58;5.07;97713.63;6318807;28;20043;-68
2023/03/17 08:24:23;;;;;;;2.55;1.30;;;;;;;40.63;5.63;97725.19;6318849;28;20050;-69
2023/03/17 08:27:28;;;;;;;1.27;1.10;;;;;;;39.78;5.69;97708.84;6318659;28;20077;-67
2023/03/17 08:30:33;;;;;;;3.13;1.27;;;;;;;39.61;5.85;97720.84;6318865;28;20505;-68
2023/03/17 08:33:37;;;;;;;2.38;1.00;;;;;;;39.46;5.76;97718.84;6318549;28;20059;-68
2023/03/17 08:36:42;;;;;;;1.83;1.23;;;;;;;38.82;6.20;97711.38;6318873;28;20216;-68
2023/03/17 08:39:46;;;;;;;1.65;1.30;;;;;;;39.38;5.86;97704.72;6317493;28;20094;-69
2023/03/17 08:42:50;;;;;;;1.58;0.90;;;;;;;39.94;5.86;97699.53;6318847;28;20051;-68
2023/03/17 08:46:06;;;;;;;2.13;0.85;;;;;;;39.52;5.83;97705.91;6318617;28;20048;-67
2023/03/17 08:49:11;;;;;;;1.27;0.93;;;;;;;38.47;5.78;97700.03;6318812;28;20120;-68
2023/03/17 08:52:16;;;;;;;1.30;0.70;;;;;;;38.05;5.70;97692.38;6317624;28;20055;-68
2023/03/17 08:55:21;;;;;;;0.88;0.70;;;;;;;37.50;6.04;97697.66;6300232;28;20052;-69
2023/03/17 08:58:25;;;;;;;1.38;1.13;;;;;;;36.35;6.57;97687.97;6318571;28;20501;-69
2023/03/17 09:01:30;;;;;;;0.88;0.73;;;;;;;34.64;6.82;97680.81;6318400;28;20086;-68
2023/03/17 09:04:35;;;;;;;1.75;0.88;;;;;;;33.58;7.58;97668.53;6318313;28;20547;-68
2023/03/17 09:07:40;;;;;;;2.53;1.30;;;;;;;34.36;7.49;97668.56;6319444;28;20039;-68
2023/03/17 09:10:44;;;;;;;1.20;1.10;;;;;;;35.73;7.11;97675.78;6322673;28;20086;-68
2023/03/17 09:13:49;;;;;;;1.25;0.85;;;;;;;36.64;6.93;97670.47;6322483;28;20085;-69
2023/03/17 09:16:54;;;;;;;0.98;0.77;;;;;;;37.19;6.71;97673.56;6322701;28;20036;-69
2023/03/17 09:19:56;;;;;;;2.10;1.10;;;;;;;36.91;6.93;97669.81;6321126;28;20498;-69
2023/03/17 09:23:06;;;;;;;2.53;1.23;;;;;;;37.04;6.35;97671.44;6322497;28;20486;-70
2023/03/17 09:26:11;;;;;;;1.77;1.20;;;;;;;37.16;6.30;97677.66;6322694;28;20035;-69
2023/03/17 09:29:16;;;;;;;2.35;1.15;;;;;;;36.02;6.59;97678.56;6322681;28;20573;-69
2023/03/17 09:32:20;;;;;;;1.42;1.30;;;;;;;35.02;7.23;97672.19;6322538;28;20054;-69
2023/03/17 09:35:26;;;;;;;1.80;1.45;;;;;;;33.47;7.82;97664.63;6321166;28;20066;-69
2023/03/17 09:38:30;;;;;;;2.00;1.80;;;;;;;32.29;8.26;97654.44;6322071;28;20062;-68
2023/03/17 09:42:23;;;;;;;2.28;2.08;;;;;;;32.94;8.55;97660.47;6321970;28;20120;-68
2023/03/17 09:45:42;;;;;;;3.85;2.58;;;;;;;33.73;8.32;97658.03;6293700;28;20047;-69
2023/03/17 09:49:06;;;;;;;3.13;2.42;;;;;;;34.78;7.63;97663.13;6322007;28;20501;-68
2023/03/17 09:52:13;;;;;;;3.50;2.33;;;;;;;32.48;8.11;97656.22;6322276;28;20167;-69
2023/03/17 09:55:27;;;;;;;3.80;2.55;;;;;;;30.82;9.17;97652.13;6321630;28;20056;-68
2023/03/17 09:58:34;;;;;;;5.13;3.00;;;;;;;30.58;9.77;97650.00;6303579;28;20043;-68
2023/03/17 10:01:43;;;;;;;3.58;2.70;;;;;;;30.16;9.91;97641.13;6321668;28;20055;-67
2023/03/17 10:04:47;;;;;;;3.58;2.85;;;;;;;30.20;10.29;97648.69;6320443;28;20152;-69
2023/03/17 10:08:20;;;;;;;3.70;2.65;;;;;;;31.33;9.86;97648.69;6321722;28;20425;-68
2023/03/17 10:11:52;;;;;;;3.10;2.40;;;;;;;31.29;10.13;97662.97;6313530;28;20052;-69
2023/03/17 10:15:14;;;;;;;3.97;2.70;;;;;;;29.52;11.06;97645.03;6321552;28;20405;-68
2023/03/17 10:18:23;;;;;;;4.63;3.15;;;;;;;28.86;11.46;97637.31;6320677;28;20529;-68
2023/03/17 10:21:32;;;;;;;4.18;3.05;;;;;;;28.79;11.62;97639.13;6321163;28;20197;-68
2023/03/17 10:24:43;;;;;;;5.43;3.25;;;;;;;28.64;11.61;97633.78;6320897;28;20040;-69
2023/03/17 10:27:58;;;;;;;4.95;3.13;;;;;;;29.16;11.69;97635.25;6320871;28;20055;-68
2023/03/17 10:31:32;;;;;;;9.05;5.85;;;;;;;29.80;11.17;97633.31;6320665;28;20085;-69
2023/03/17 10:34:38;;;;;;;7.32;4.88;;;;;;;29.31;11.37;97638.69;6313328;28;20056;-68
2023/03/17 10:37:46;;;;;;;4.70;3.20;;;;;;;28.15;12.04;97638.09;6320521;28;20036;-68
2023/03/17 10:41:05;;;;;;;5.53;3.53;;;;;;;28.42;12.01;97627.56;6319137;28;20050;-68
2023/03/17 10:44:20;;;;;;;4.63;3.13;;;;;;;28.28;11.80;97625.72;6320658;28;20054;-69
2023/03/17 10:47:31;;;;;;;3.97;3.00;;;;;;;26.69;12.77;97629.84;6319153;28;20040;-69
2023/03/17 10:50:42;;;;;;;4.18;3.45;;;;;;;26.12;13.44;97626.56;6320431;28;20135;-68
2023/03/17 10:53:52;;;;;;;5.63;3.40;;;;;;;26.16;13.41;97636.00;6320042;28;20040;-68
2023/03/17 10:57:05;;;;;;;5.07;3.45;;;;;;;26.82;12.86;97630.91;6320292;28;20035;-68
2023/03/17 11:00:22;;;;;;;5.22;2.88;;;;;;;27.43;12.48;97633.50;6320469;28;20036;-68
2023/03/17 11:03:32;;;;;;;4.50;3.08;;;;;;;27.08;12.59;97629.63;6319115;28;20505;-69
2023/03/17 11:06:43;;;;;;;3.65;2.35;;;;;;;25.75;13.38;97619.19;6320455;28;20040;-68
2023/03/17 11:09:56;;;;;;;6.93;3.30;;;;;;;24.24;14.47;97615.50;6320040;28;20053;-68
2023/03/17 11:13:01;;;;;;;5.15;3.00;;;;;;;23.66;15.14;97618.03;6318930;28;20040;-68
2023/03/17 11:16:21;;;;;;;4.10;3.22;;;;;;;22.83;15.67;97615.97;6319544;28;20044;-68
2023/03/17 11:20:03;;;;;;;3.70;3.03;;;;;;;22.73;15.90;97625.97;6319997;28;20039;-69
2023/03/17 11:23:26;;;;;;;11.45;7.13;;;;;;;21.73;16.61;97616.34;6318182;28;20036;-68
2023/03/17 11:26:44;;;;;;;4.72;3.83;;;;;;;20.99;17.20;97607.41;6319387;28;20442;-69
2023/03/17 11:29:53;;;;;;;4.63;3.05;;;;;;;20.37;17.77;97601.63;6317060;28;20550;-67
2023/03/17 11:33:21;;;;;;;4.82;3.30;;;;;;;19.98;18.05;97598.16;6319337;28;20366;-68
2023/03/17 11:36:43;;;;;;;3.92;3.03;;;;;;;19.70;18.35;97607.81;6319655;28;20044;-69
2023/03/17 11:40:15;;;;;;;4.97;3.47;;;;;;;20.36;17.90;97602.63;6319569;28;20051;-69
2023/03/17 11:43:35;;;;;;;4.72;3.05;;;;;;;20.67;17.67;97601.63;6317894;28;20172;-68
2023/03/17 11:46:45;;;;;;;3.53;2.78;;;;;;;20.81;17.90;97609.19;6318818;28;20622;-69
2023/03/17 11:50:02;;;;;;;5.43;3.10;;;;;;;21.05;17.84;97606.81;6319156;28;20043;-68
2023/03/17 11:53:24;;;;;;;5.70;2.90;;;;;;;21.33;17.60;97595.28;6316939;28;20579;-67
2023/03/17 11:56:34;;;;;;;4.57;3.80;;;;;;;21.39;17.57;97592.88;6317937;28;20402;-69
2023/03/17 11:59:51;;;;;;;5.25;3.00;;;;;;;21.18;18.13;97594.97;6319192;28;20047;-69
2023/03/17 12:02:56;;;;;;;3.72;3.30;;;;;;;21.18;18.00;97597.63;6317022;28;20132;-69
2023/03/17 12:06:10;;;;;;;4.10;2.92;;;;;;;20.91;18.47;97598.44;6318797;28;20501;-69
2023/03/17 12:09:31;;;;;;;5.50;3.05;;;;;;;20.46;18.56;97599.94;6318732;28;20145;-69
2023/03/17 12:12:39;;;;;;;7.60;3.58;;;;;;;19.99;19.15;97591.84;6318735;28;20036;-69
2023/03/17 12:16:02;;;;;;;7.25;4.05;;;;;;;19.23;19.43;97584.41;6317935;28;20051;-69
2023/03/17 12:19:44;;;;;;;8.40;4.38;;;;;;;18.50;20.32;97585.44;6318305;28;20078;-69
2023/03/17 12:22:58;;;;;;;5.57;4.38;;;;;;;17.73;21.30;97583.88;6318385;28;20040;-68
2023/03/17 12:26:07;;;;;;;4.28;3.20;;;;;;;17.56;22.13;97589.75;6318966;28;20409;-68
2023/03/17 12:29:18;;;;;;;5.05;2.90;;;;;;;17.74;21.80;97578.41;6318594;28;20074;-69
2023/03/17 12:32:19;;;;;;;5.28;2.88;;;;;;;17.35;22.11;97577.22;6317987;28;20052;-68
2023/03/17 12:35:33;;;;;;;4.30;3.17;;;;;;;16.38;23.41;97566.22;6318662;28;20125;-69
2023/03/17 12:38:50;;;;;;;5.68;2.60;;;;;;;15.85;24.14;97568.53;6318551;28;20044;-69
2023/03/17 12:42:21;;;;;;;3.47;2.72;;;;;;;15.69;24.08;97568.81;6319658;28;20425;-68
2023/03/17 12:45:38;;;;;;;5.38;2.70;;;;;;;15.32;25.07;97569.81;6280658;28;20174;-68
2023/03/17 12:49:12;;;;;;;13.77;3.33;;;;;;;14.82;25.45;97560.09;6323358;28;20067;-68
2023/03/17 12:52:47;;;;;;;4.03;2.60;;;;;;;14.03;26.26;97569.06;6323342;28;20040;-68
2023/03/17 12:55:51;;;;;;;4.43;2.60;;;;;;;13.27;27.58;97566.22;6322364;28;20170;-68
2023/03/17 12:59:15;;;;;;;2.60;2.40;;;;;;;12.53;29.35;97562.91;6323126;28;20036;-68
2023/03/17 13:02:28;;;;;;;2.97;2.58;;;;;;;11.79;30.01;97569.09;6322747;28;20040;-68
2023/03/17 13:05:36;;;;;;;4.05;2.47;;;;;;;11.37;31.08;97571.47;6323141;28;20036;-68
2023/03/17 13:08:41;;;;;;;2.28;2.08;;;;;;;11.05;31.57;97570.66;6322811;28;20058;-68
2023/03/17 13:11:48;;;;;;;2.60;2.28;;;;;;;10.73;32.07;97581.19;6322811;28;20052;-68
2023/03/17 13:14:53;;;;;;;5.47;3.13;;;;;;;10.36;32.83;97571.78;6322338;28;20048;-68
2023/03/17 13:18:13;;;;;;;4.30;3.17;;;;;;;9.74;33.95;97579.31;6322619;28;20540;-69
2023/03/17 13:21:20;;;;;;;12.60;7.25;;;;;;;8.96;35.28;97564.72;6321284;28;20142;-68
2023/03/17 13:24:33;;;;;;;10.82;6.00;;;;;;;8.65;35.86;97570.56;6322329;28;20051;-68
2023/03/17 13:27:41;;;;;;;4.65;3.13;;;;;;;8.49;35.93;97565.16;6322108;28;20048;-68
2023/03/17 13:31:05;;;;;;;4.47;2.65;;;;;;;8.01;36.64;97572.50;6322028;28;20052;-68
2023/03/17 13:34:14;;;;;;;3.05;2.30;;;;;;;7.62;37.20;97557.56;6320512;28;20078;-68
2023/03/17 13:37:29;;;;;;;3.42;2.25;;;;;;;7.53;38.06;97559.69;6322063;28;20417;-69
2023/03/17 13:41:00;;;;;;;3.55;2.17;;;;;;;7.18;38.54;97568.06;6322204;28;20044;-68
2023/03/17 13:44:20;;;;;;;2.63;2.00;;;;;;;6.95;38.34;97557.69;6321437;28;20052;-68
2023/03/17 13:47:27;;;;;;;2.42;2.10;;;;;;;6.73;38.83;97561.13;6322168;28;20635;-68
2023/03/17 13:50:33;;;;;;;4.45;2.75;;;;;;;6.75;40.29;97559.31;6322587;28;20039;-68
2023/03/17 13:53:51;;;;;;;2.38;2.17;;;;;;;6.40;40.68;97567.66;6321418;28;20040;-67
2023/03/17 13:56:55;;;;;;;2.63;1.98;;;;;;;6.26;41.36;97555.94;6320931;28;20539;-69
2023/03/17 14:00:14;;;;;;;2.90;2.40;;;;;;;5.94;42.10;97559.69;6321961;28;20036;-68
2023/03/17 14:03:34;;;;;;;4.10;2.22;;;;;;;5.60;42.52;97562.56;6321249;28;20051;-68
2023/03/17 14:06:40;;;;;;;2.33;1.92;;;;;;;5.42;42.92;97563.22;6321596;28;20417;-69
2023/03/17 14:09:45;;;;;;;2.80;2.00;;;;;;;5.38;42.66;97565.09;6321266;28;20051;-68
2023/03/17 14:12:57;;;;;;;6.10;3.13;;;;;;;5.31;43.40;97559.19;6321560;28;20425;-67
2023/03/17 14:16:12;;;;;;;4.20;2.22;;;;;;;5.17;43.62;97564.00;6321191;28;20056;-67
2023/03/17 14:19:21;;;;;;;3.80;2.25;;;;;;;5.04;43.84;97565.28;6320508;28;20135;-68
2023/03/17 14:22:26;;;;;;;3.15;2.22;;;;;;;4.88;44.15;97560.56;6321686;28;20565;-68
2023/03/17 14:25:37;;;;;;;3.03;2.38;;;;;;;4.81;45.06;97569.50;6320424;28;20054;-68
2023/03/17 14:28:43;;;;;;;4.32;2.15;;;;;;;4.63;44.68;97564.81;6320866;28;20048;-70
2023/03/17 14:31:52;;;;;;;2.60;1.90;;;;;;;4.55;45.11;97566.81;6319884;28;20056;-68
2023/03/17 14:34:58;;;;;;;12.00;7.35;;;;;;;4.44;45.24;97561.91;6321242;28;20047;-69
2023/03/17 14:38:15;;;;;;;11.55;6.32;;;;;;;4.33;45.25;97551.81;6320627;28;20040;-68
2023/03/17 14:41:22;;;;;;;5.47;3.50;;;;;;;4.34;46.02;97557.88;6320370;28;20052;-68
2023/03/17 14:44:26;;;;;;;4.40;3.05;;;;;;;4.19;45.85;97548.72;6320879;28;20036;-69
2023/03/17 14:47:36;;;;;;;3.05;2.38;;;;;;;4.15;46.46;97547.13;6320347;28;20048;-69